createdAt,value
2024-02-21T00:00:00.447Z,5.70
2024-02-21T00:02:27.305Z,5.70
2024-02-21T00:04:54.290Z,5.60
2024-02-21T00:07:21.384Z,5.80
2024-02-21T00:09:48.272Z,5.70
2024-02-21T00:12:15.090Z,5.70
2024-02-21T00:14:42.164Z,5.60
2024-02-21T00:17:09.654Z,5.70
2024-02-21T00:19:37.237Z,5.60
2024-02-21T00:22:05.256Z,5.60
2024-02-21T00:24:32.105Z,5.70
2024-02-21T00:26:59.286Z,5.70
2024-02-21T00:29:26.083Z,5.60
2024-02-21T00:31:53.290Z,5.60
2024-02-21T00:34:20.515Z,5.60
2024-02-21T00:36:47.400Z,5.70
2024-02-21T00:39:14.276Z,5.60
2024-02-21T00:41:41.495Z,5.80
2024-02-21T00:44:08.496Z,5.70
2024-02-21T00:46:35.707Z,5.70
2024-02-21T00:49:02.665Z,5.70
2024-02-21T00:51:29.771Z,5.80
2024-02-21T00:53:56.916Z,5.60
2024-02-21T00:56:23.767Z,5.70
2024-02-21T00:58:50.923Z,5.60
2024-02-21T01:01:27.209Z,5.60
2024-02-21T01:03:57.227Z,5.60
2024-02-21T01:06:25.022Z,5.70
2024-02-21T01:08:52.116Z,5.70
2024-02-21T01:11:19.675Z,5.60
2024-02-21T01:13:46.734Z,5.70
2024-02-21T01:16:13.717Z,5.70
2024-02-21T01:18:41.187Z,5.90
2024-02-21T01:21:09.117Z,5.80
2024-02-21T01:23:37.205Z,5.80
2024-02-21T01:26:04.810Z,5.80
2024-02-21T01:28:32.123Z,5.80
2024-02-21T01:30:59.223Z,5.80
2024-02-21T01:33:26.278Z,5.90
2024-02-21T01:35:53.599Z,5.80
2024-02-21T01:38:20.879Z,5.80
2024-02-21T01:40:47.839Z,5.90
2024-02-21T01:43:20.071Z,5.80
2024-02-21T01:45:53.774Z,5.80
2024-02-21T01:48:22.729Z,5.80
2024-02-21T01:50:55.244Z,5.80
2024-02-21T01:53:31.895Z,5.90
2024-02-21T01:55:59.020Z,5.80
2024-02-21T01:58:31.225Z,5.80
2024-02-21T02:00:59.387Z,5.80
2024-02-21T02:03:26.909Z,5.70
2024-02-21T02:05:54.043Z,5.70
2024-02-21T02:08:23.344Z,5.70
2024-02-21T02:10:50.578Z,5.60
2024-02-21T02:13:18.031Z,5.60
2024-02-21T02:15:46.800Z,5.60
2024-02-21T02:18:15.302Z,5.50
2024-02-21T02:20:42.589Z,5.60
2024-02-21T02:23:15.851Z,5.50
2024-02-21T02:25:42.779Z,5.50
2024-02-21T02:28:13.511Z,5.50
2024-02-21T02:30:40.587Z,5.40
2024-02-21T02:33:07.768Z,5.40
2024-02-21T02:35:36.940Z,5.20
2024-02-21T02:38:05.078Z,5.40
2024-02-21T02:40:32.965Z,5.30
2024-02-21T02:42:59.796Z,5.30
2024-02-21T02:45:30.275Z,5.20
2024-02-21T02:47:58.638Z,5.20
2024-02-21T02:50:26.403Z,5.20
2024-02-21T02:52:55.708Z,5.20
2024-02-21T02:55:22.938Z,5.00
2024-02-21T02:57:51.196Z,5.10
2024-02-21T03:00:18.730Z,5.10
2024-02-21T03:02:47.592Z,5.00
2024-02-21T03:05:16.886Z,5.00
2024-02-21T03:07:44.999Z,5.00
2024-02-21T03:10:12.765Z,5.00
2024-02-21T03:12:39.856Z,5.00
2024-02-21T03:15:07.790Z,5.10
2024-02-21T03:17:37.356Z,5.10
2024-02-21T03:20:12.660Z,5.10
2024-02-21T03:22:41.551Z,5.10
2024-02-21T03:25:10.996Z,5.20
2024-02-21T03:27:38.239Z,5.20
2024-02-21T03:30:05.881Z,5.30
2024-02-21T03:32:32.848Z,5.30
2024-02-21T03:35:00.156Z,5.30
2024-02-21T03:37:27.137Z,5.40
2024-02-21T03:39:54.248Z,5.40
2024-02-21T03:42:21.110Z,5.40
2024-02-21T03:44:47.965Z,5.40
2024-02-21T03:47:14.998Z,5.30
2024-02-21T03:49:41.941Z,5.30
2024-02-21T03:52:09.605Z,5.40
2024-02-21T03:54:36.531Z,5.40
2024-02-21T03:57:04.450Z,5.30
2024-02-21T03:59:31.318Z,5.30
2024-02-21T04:01:58.688Z,5.20
2024-02-21T04:04:25.703Z,5.30
2024-02-21T04:06:53.226Z,5.40
2024-02-21T04:09:20.333Z,5.40
2024-02-21T04:11:47.528Z,5.40
2024-02-21T04:14:14.714Z,5.40
2024-02-21T04:16:41.706Z,5.40
2024-02-21T04:19:09.649Z,5.40
2024-02-21T04:21:37.113Z,5.40
2024-02-21T04:24:07.556Z,5.40
2024-02-21T04:26:35.445Z,5.40
2024-02-21T04:29:03.676Z,5.40
2024-02-21T04:31:33.721Z,5.40
2024-02-21T04:34:00.909Z,5.40
2024-02-21T04:36:28.102Z,5.40
2024-02-21T04:38:54.924Z,5.40
2024-02-21T04:41:22.288Z,5.40
2024-02-21T04:43:49.724Z,5.30
2024-02-21T04:46:18.252Z,5.30
2024-02-21T04:48:46.076Z,5.30
2024-02-21T04:51:15.133Z,5.30
2024-02-21T04:53:42.225Z,5.40
2024-02-21T04:56:09.872Z,5.40
2024-02-21T04:58:40.647Z,5.50
2024-02-21T05:01:09.171Z,5.50
2024-02-21T05:03:36.476Z,5.50
2024-02-21T05:06:03.655Z,5.50
2024-02-21T05:08:30.607Z,5.50
2024-02-21T05:10:57.648Z,5.40
2024-02-21T05:13:24.708Z,5.40
2024-02-21T05:15:51.845Z,5.50
2024-02-21T05:18:18.788Z,5.60
2024-02-21T05:20:45.893Z,5.60
2024-02-21T05:23:13.056Z,5.60
2024-02-21T05:25:39.977Z,5.50
2024-02-21T05:28:07.874Z,5.60
2024-02-21T05:30:34.905Z,5.60
2024-02-21T05:33:08.827Z,5.70
2024-02-21T05:35:37.588Z,5.70
2024-02-21T05:38:12.698Z,5.80
2024-02-21T05:40:39.998Z,5.70
2024-02-21T05:43:07.811Z,5.70
2024-02-21T05:45:34.749Z,6.00
2024-02-21T05:48:02.218Z,5.80
2024-02-21T05:50:29.628Z,5.80
2024-02-21T05:52:57.661Z,5.70
2024-02-21T05:55:24.616Z,5.70
2024-02-21T05:57:54.373Z,5.80
2024-02-21T06:00:21.533Z,5.80
2024-02-21T06:02:48.599Z,5.80
2024-02-21T06:05:15.663Z,5.80
2024-02-21T06:07:42.659Z,5.90
2024-02-21T06:10:10.475Z,5.80
2024-02-21T06:12:40.476Z,5.80
2024-02-21T06:15:07.932Z,5.90
2024-02-21T06:17:35.067Z,5.90
2024-02-21T06:20:02.126Z,6.00
2024-02-21T06:22:30.627Z,6.00
2024-02-21T06:24:57.619Z,6.10
2024-02-21T06:27:25.797Z,6.00
2024-02-21T06:29:53.037Z,6.10
2024-02-21T06:32:19.978Z,6.10
2024-02-21T06:34:47.066Z,6.20
2024-02-21T06:37:14.502Z,6.20
2024-02-21T06:39:42.444Z,6.20
2024-02-21T06:42:09.892Z,6.30
2024-02-21T06:44:41.993Z,6.30
2024-02-21T06:47:10.258Z,6.20
2024-02-21T06:49:40.087Z,6.40
2024-02-21T06:52:08.570Z,6.30
2024-02-21T06:54:35.610Z,6.30
2024-02-21T06:57:02.912Z,6.30
2024-02-21T06:59:31.263Z,6.30
2024-02-21T07:01:58.421Z,6.50
2024-02-21T07:04:25.568Z,6.50
2024-02-21T07:06:52.744Z,6.50
2024-02-21T07:09:20.277Z,6.50
2024-02-21T07:11:47.182Z,6.80
2024-02-21T07:14:16.706Z,6.70
2024-02-21T07:16:45.066Z,6.90
2024-02-21T07:19:13.640Z,6.90
2024-02-21T07:21:43.494Z,7.00
2024-02-21T07:24:10.637Z,7.00
2024-02-21T07:26:38.005Z,7.10
2024-02-21T07:29:05.271Z,7.20
2024-02-21T07:31:32.346Z,7.00
2024-02-21T07:33:59.732Z,6.90
2024-02-21T07:36:31.912Z,6.90
2024-02-21T07:39:00.548Z,6.90
2024-02-21T07:41:27.908Z,6.80
2024-02-21T07:43:55.456Z,6.90
2024-02-21T07:46:22.670Z,7.10
2024-02-21T07:48:50.222Z,7.30
2024-02-21T07:51:20.719Z,7.10
2024-02-21T07:53:48.923Z,7.20
2024-02-21T07:56:16.642Z,7.40
2024-02-21T07:58:43.809Z,7.40
2024-02-21T08:01:12.989Z,7.30
2024-02-21T08:03:39.994Z,7.30
2024-02-21T08:06:07.147Z,7.40
2024-02-21T08:08:34.035Z,7.50
2024-02-21T08:11:01.515Z,7.50
2024-02-21T08:13:30.051Z,7.50
2024-02-21T08:15:58.596Z,7.60
2024-02-21T08:18:25.759Z,7.40
2024-02-21T08:20:53.011Z,7.60
2024-02-21T08:23:20.648Z,7.60
2024-02-21T08:25:48.689Z,7.70
2024-02-21T08:28:16.134Z,7.70
2024-02-21T08:30:49.648Z,7.80
2024-02-21T08:33:18.037Z,7.90
2024-02-21T08:35:45.485Z,8.00
2024-02-21T08:38:12.399Z,8.10
2024-02-21T08:40:39.576Z,8.10
2024-02-21T08:43:06.405Z,8.10
2024-02-21T08:45:33.600Z,8.30
2024-02-21T08:48:00.934Z,8.10
2024-02-21T08:50:29.523Z,8.10
2024-02-21T08:52:57.319Z,8.00
2024-02-21T08:55:25.317Z,8.00
2024-02-21T08:57:52.647Z,8.10
2024-02-21T09:00:22.481Z,8.20
2024-02-21T09:02:49.534Z,8.20
2024-02-21T09:05:17.057Z,8.30
2024-02-21T09:07:44.107Z,8.30
2024-02-21T09:10:11.524Z,8.30
2024-02-21T09:12:38.745Z,8.30
2024-02-21T09:15:06.978Z,8.20
2024-02-21T09:17:34.076Z,8.20
2024-02-21T09:20:04.466Z,8.20
2024-02-21T09:22:33.057Z,8.30
2024-02-21T09:24:59.978Z,8.20
2024-02-21T09:27:27.264Z,8.30
2024-02-21T09:29:54.298Z,8.40
2024-02-21T09:32:21.256Z,8.50
2024-02-21T09:34:48.562Z,8.40
2024-02-21T09:37:15.786Z,8.40
2024-02-21T09:39:42.615Z,8.40
2024-02-21T09:42:13.483Z,8.50
2024-02-21T09:44:41.090Z,8.50
2024-02-21T09:47:25.477Z,8.70
2024-02-21T09:49:53.548Z,8.80
2024-02-21T09:52:22.081Z,9.30
2024-02-21T09:54:50.373Z,9.30
2024-02-21T09:57:17.894Z,9.50
2024-02-21T09:59:47.083Z,9.40
2024-02-21T10:02:14.416Z,9.10
2024-02-21T10:04:42.419Z,9.00
2024-02-21T10:07:15.010Z,8.90
2024-02-21T10:09:43.303Z,8.80
2024-02-21T10:12:14.587Z,8.60
2024-02-21T10:14:42.119Z,8.70
2024-02-21T10:17:19.560Z,8.60
2024-02-21T10:19:46.520Z,8.50
2024-02-21T10:22:13.776Z,8.50
2024-02-21T10:24:42.597Z,8.40
2024-02-21T10:27:12.857Z,8.50
2024-02-21T10:29:41.492Z,8.40
2024-02-21T10:32:13.628Z,8.40
2024-02-21T10:34:43.684Z,8.50
2024-02-21T10:37:12.291Z,8.50
2024-02-21T10:39:40.990Z,8.50
2024-02-21T10:42:11.671Z,8.50
2024-02-21T10:44:43.847Z,8.60
2024-02-21T10:47:15.021Z,8.50
2024-02-21T10:49:52.638Z,8.60
2024-02-21T10:52:29.153Z,8.60
2024-02-21T10:55:10.828Z,8.70
2024-02-21T10:57:39.311Z,8.80
2024-02-21T11:00:09.624Z,9.10
2024-02-21T11:02:38.413Z,9.20
2024-02-21T11:05:07.083Z,9.20
2024-02-21T11:07:38.385Z,9.20
2024-02-21T11:10:09.004Z,9.20
2024-02-21T11:12:35.947Z,9.30
2024-02-21T11:15:07.830Z,9.30
2024-02-21T11:17:44.318Z,9.20
2024-02-21T11:20:17.447Z,9.30
2024-02-21T11:22:44.959Z,9.20
2024-02-21T11:25:16.831Z,9.30
2024-02-21T11:27:49.912Z,9.20
2024-02-21T11:30:17.722Z,9.30
2024-02-21T11:32:44.838Z,9.30
2024-02-21T11:35:21.462Z,9.60
2024-02-21T11:37:48.560Z,9.70
2024-02-21T11:40:15.745Z,9.80
2024-02-21T11:42:43.075Z,9.90
2024-02-21T11:45:11.027Z,9.80
2024-02-21T11:47:42.774Z,9.90
2024-02-21T11:50:14.566Z,9.90
2024-02-21T11:52:43.076Z,9.60
2024-02-21T11:55:10.667Z,9.50
2024-02-21T11:57:45.130Z,9.50
2024-02-21T12:00:23.196Z,9.50
2024-02-21T12:02:52.545Z,9.40
2024-02-21T12:05:23.940Z,9.30
2024-02-21T12:07:50.965Z,9.30
2024-02-21T12:10:18.319Z,9.40
2024-02-21T12:12:45.521Z,9.40
2024-02-21T12:15:12.408Z,9.50
2024-02-21T12:17:41.964Z,9.70
2024-02-21T12:20:10.886Z,9.90
2024-02-21T12:22:51.014Z,9.80
2024-02-21T12:25:24.895Z,9.90
2024-02-21T12:27:52.061Z,9.90
2024-02-21T12:30:19.558Z,9.90
2024-02-21T12:32:49.529Z,9.70
2024-02-21T12:35:16.879Z,9.90
2024-02-21T12:37:44.732Z,9.90
2024-02-21T12:40:20.011Z,9.90
2024-02-21T12:42:47.035Z,9.70
2024-02-21T12:45:14.447Z,9.80
2024-02-21T12:47:41.889Z,9.70
2024-02-21T12:50:09.705Z,9.90
2024-02-21T12:52:36.761Z,9.80
2024-02-21T12:55:04.038Z,9.80
2024-02-21T12:57:31.237Z,9.80
2024-02-21T12:59:58.281Z,9.70
2024-02-21T13:02:25.236Z,9.60
2024-02-21T13:04:52.677Z,9.50
2024-02-21T13:07:20.494Z,9.50
2024-02-21T13:09:48.045Z,9.40
2024-02-21T13:12:15.191Z,9.50
2024-02-21T13:14:45.564Z,9.40
2024-02-21T13:17:13.185Z,9.50
2024-02-21T13:19:40.573Z,9.50
2024-02-21T13:22:09.083Z,9.50
2024-02-21T13:24:36.228Z,9.50
2024-02-21T13:27:05.072Z,9.70
2024-02-21T13:29:32.373Z,9.70
2024-02-21T13:31:59.942Z,9.50
2024-02-21T13:34:27.124Z,9.70
2024-02-21T13:36:54.319Z,9.70
2024-02-21T13:39:21.506Z,9.70
2024-02-21T13:41:49.514Z,9.90
2024-02-21T13:44:16.485Z,10.00
2024-02-21T13:46:43.400Z,10.00
2024-02-21T13:49:10.705Z,10.10
2024-02-21T14:23:58.128Z,10.10
2024-02-21T14:26:25.130Z,10.20
2024-02-21T14:28:52.278Z,10.20
2024-02-21T14:31:19.286Z,10.10
2024-02-21T14:33:47.790Z,10.10
2024-02-21T14:36:16.908Z,10.10
2024-02-21T14:38:44.447Z,10.00
2024-02-21T14:41:14.045Z,10.10
2024-02-21T14:43:40.988Z,10.00
2024-02-21T14:46:08.042Z,10.00
2024-02-21T14:48:35.081Z,9.90
2024-02-21T14:51:02.354Z,10.00
2024-02-21T14:53:30.844Z,9.80
2024-02-21T14:55:59.431Z,10.10
2024-02-21T14:58:27.118Z,9.90
2024-02-21T15:00:55.489Z,9.80
2024-02-21T15:03:22.846Z,9.80
2024-02-21T15:05:49.788Z,9.80
2024-02-21T15:08:18.623Z,9.80
2024-02-21T15:10:45.539Z,9.80
2024-02-21T15:13:13.093Z,9.60
2024-02-21T15:15:40.001Z,9.70
2024-02-21T15:18:07.259Z,9.80
2024-02-21T15:20:34.246Z,9.70
2024-02-21T15:23:02.320Z,9.70
2024-02-21T15:25:29.312Z,9.60
2024-02-21T15:28:00.062Z,9.50
2024-02-21T15:30:28.094Z,9.50
2024-02-21T15:32:56.943Z,9.50
2024-02-21T15:35:24.291Z,9.50
2024-02-21T15:37:51.337Z,9.40
2024-02-21T15:40:19.040Z,9.40
2024-02-21T15:42:46.219Z,9.40
2024-02-21T15:45:13.548Z,9.40
2024-02-21T15:47:40.674Z,9.30
2024-02-21T15:50:08.382Z,9.30
2024-02-21T15:52:36.031Z,9.30
2024-02-21T15:55:03.302Z,9.20
2024-02-21T15:57:30.363Z,9.20
2024-02-21T15:59:57.239Z,9.20
2024-02-21T16:02:26.070Z,9.20
2024-02-21T16:04:54.131Z,9.10
2024-02-21T16:07:21.373Z,9.20
2024-02-21T16:09:49.020Z,9.10
2024-02-21T16:12:19.406Z,9.20
2024-02-21T16:14:49.327Z,9.00
2024-02-21T16:17:16.437Z,9.00
2024-02-21T16:19:43.352Z,9.00
2024-02-21T16:22:11.618Z,9.00
2024-02-21T16:24:38.491Z,8.80
2024-02-21T16:27:10.584Z,9.00
2024-02-21T16:29:38.231Z,9.00
2024-02-21T16:32:06.027Z,9.00
2024-02-21T16:34:34.441Z,9.00
2024-02-21T16:37:01.652Z,8.90
2024-02-21T16:39:28.557Z,9.00
2024-02-21T16:41:57.190Z,8.90
2024-02-21T16:44:24.195Z,8.80
2024-02-21T16:46:51.574Z,8.70
2024-02-21T16:49:19.067Z,8.70
2024-02-21T16:51:50.871Z,8.60
2024-02-21T16:54:26.646Z,8.40
2024-02-21T16:56:53.770Z,8.20
2024-02-21T16:59:21.428Z,8.10
2024-02-21T17:01:52.539Z,7.90
2024-02-21T17:04:20.485Z,7.70
2024-02-21T17:06:48.443Z,7.70
2024-02-21T17:09:18.970Z,7.70
2024-02-21T17:11:46.358Z,7.60
2024-02-21T17:14:13.930Z,7.40
2024-02-21T17:16:41.178Z,7.20
2024-02-21T17:19:08.249Z,7.20
2024-02-21T17:21:35.709Z,7.10
2024-02-21T17:24:02.911Z,7.00
2024-02-21T17:26:29.939Z,6.90
2024-02-21T17:28:57.208Z,6.80
2024-02-21T17:31:24.156Z,6.80
2024-02-21T17:33:51.492Z,6.80
2024-02-21T17:36:18.546Z,6.60
2024-02-21T17:38:45.363Z,6.60
2024-02-21T17:41:12.903Z,6.70
2024-02-21T17:43:40.249Z,6.60
2024-02-21T17:46:10.994Z,6.60
2024-02-21T17:48:38.509Z,6.60
2024-02-21T17:51:05.861Z,6.60
2024-02-21T17:53:33.407Z,6.50
2024-02-21T17:56:00.697Z,6.50
2024-02-21T17:58:27.633Z,6.50
2024-02-21T18:00:59.070Z,6.50
2024-02-21T18:03:30.222Z,6.60
2024-02-21T18:06:05.645Z,6.40
2024-02-21T18:08:33.653Z,6.40
2024-02-21T18:11:00.788Z,6.50
2024-02-21T18:13:32.803Z,6.60
2024-02-21T18:16:03.292Z,6.40
2024-02-21T18:18:32.260Z,6.40
2024-02-21T18:20:59.348Z,6.30
2024-02-21T18:23:29.532Z,6.20
2024-02-21T18:25:56.456Z,6.20
2024-02-21T18:28:24.469Z,6.30
2024-02-21T18:30:59.532Z,6.20
2024-02-21T18:42:44.848Z,6.00
2024-02-21T18:45:47.075Z,5.90
2024-02-21T18:58:09.217Z,5.80
2024-02-21T19:06:35.227Z,5.80
2024-02-21T19:09:05.628Z,5.70
2024-02-21T19:11:33.469Z,5.50
2024-02-21T19:14:00.868Z,5.60
2024-02-21T19:16:30.260Z,5.60
2024-02-21T19:18:57.876Z,5.60
2024-02-21T19:21:24.709Z,5.60
2024-02-21T19:23:51.558Z,5.60
2024-02-21T19:26:18.407Z,5.50
2024-02-21T19:28:46.946Z,5.50
2024-02-21T19:31:14.661Z,5.30
2024-02-21T19:33:43.921Z,5.30
2024-02-21T19:36:11.141Z,5.30
2024-02-21T19:38:38.260Z,5.50
2024-02-21T19:41:09.293Z,5.30
2024-02-21T19:43:36.577Z,5.20
2024-02-21T19:46:03.750Z,5.30
2024-02-21T19:48:32.325Z,5.40
2024-02-21T19:51:01.023Z,5.40
2024-02-21T19:53:29.095Z,5.20
2024-02-21T19:56:00.300Z,5.20
2024-02-21T19:58:27.695Z,5.20
2024-02-21T20:00:54.756Z,5.30
2024-02-21T20:03:22.160Z,5.40
2024-02-21T20:05:49.498Z,5.30
2024-02-21T20:08:18.749Z,5.60
2024-02-21T20:10:45.855Z,5.40
2024-02-21T20:13:14.416Z,5.20
2024-02-21T20:15:43.666Z,5.30
2024-02-21T20:18:13.732Z,5.40
2024-02-21T20:20:42.179Z,5.30
2024-02-21T20:23:16.667Z,5.20
2024-02-21T20:25:44.382Z,5.10
2024-02-21T20:28:15.268Z,5.20
2024-02-21T20:30:42.630Z,5.20
2024-02-21T20:33:09.826Z,5.40
2024-02-21T20:35:37.405Z,5.30
2024-02-21T20:38:04.910Z,5.60
2024-02-21T20:40:35.983Z,5.20
2024-02-21T20:43:05.194Z,5.20
2024-02-21T20:45:36.061Z,5.10
2024-02-21T20:48:04.189Z,5.00
2024-02-21T20:50:31.162Z,5.00
2024-02-21T20:52:58.242Z,5.00
2024-02-21T20:55:25.962Z,5.00
2024-02-21T20:57:53.679Z,5.00
2024-02-21T21:00:22.930Z,5.00
2024-02-21T21:02:52.654Z,5.00
2024-02-21T21:05:19.947Z,4.90
2024-02-21T21:07:47.402Z,4.90
2024-02-21T21:10:16.916Z,4.80
2024-02-21T21:12:45.434Z,4.80
2024-02-21T21:15:13.649Z,4.80
2024-02-21T21:17:40.948Z,4.70
2024-02-21T21:20:11.988Z,4.70
2024-02-21T21:22:43.129Z,4.80
2024-02-21T21:25:10.403Z,4.70
2024-02-21T21:27:39.296Z,4.70
2024-02-21T21:30:07.365Z,4.80
2024-02-21T21:32:40.147Z,4.80
2024-02-21T21:35:14.865Z,4.90
2024-02-21T21:37:44.059Z,4.90
2024-02-21T21:40:14.319Z,5.00
2024-02-21T21:42:41.676Z,5.10
2024-02-21T21:45:10.450Z,5.10
2024-02-21T21:47:37.510Z,5.10
2024-02-21T21:50:05.199Z,5.20
2024-02-21T21:52:32.489Z,5.20
2024-02-21T21:55:00.136Z,5.30
2024-02-21T21:57:27.681Z,5.20
2024-02-21T21:59:54.539Z,5.30
2024-02-21T22:02:26.969Z,5.40
2024-02-21T22:04:54.227Z,5.50
2024-02-21T22:07:21.187Z,5.40
2024-02-21T22:09:48.083Z,5.50
2024-02-21T22:12:15.072Z,5.50
2024-02-21T22:14:42.009Z,5.40
2024-02-21T22:17:08.847Z,5.30
2024-02-21T22:19:35.863Z,5.40
2024-02-21T22:22:04.689Z,5.50
2024-02-21T22:24:32.296Z,5.70
2024-02-21T22:27:00.911Z,5.60
2024-02-21T22:29:30.147Z,5.60
2024-02-21T22:31:57.154Z,5.70
2024-02-21T22:34:24.267Z,5.90
2024-02-21T22:36:51.380Z,5.70
2024-02-21T22:39:18.219Z,5.80
2024-02-21T22:41:46.546Z,5.90
2024-02-21T22:44:13.500Z,5.90
2024-02-21T22:46:41.631Z,6.10
2024-02-21T22:49:08.601Z,6.10
2024-02-21T22:51:35.600Z,6.20
2024-02-21T22:54:03.610Z,6.10
2024-02-21T22:56:30.500Z,6.10
2024-02-21T22:58:58.449Z,6.10
2024-02-21T23:01:25.494Z,6.10
2024-02-21T23:03:52.624Z,6.20
2024-02-21T23:06:21.840Z,6.10
2024-02-21T23:08:48.982Z,5.90
2024-02-21T23:11:16.162Z,5.90
2024-02-21T23:13:43.366Z,5.90
2024-02-21T23:16:13.043Z,6.10
2024-02-21T23:18:40.159Z,6.00
2024-02-21T23:21:12.587Z,5.90
2024-02-21T23:23:40.069Z,5.90
2024-02-21T23:26:07.290Z,6.00
2024-02-21T23:28:34.341Z,6.10
2024-02-21T23:31:01.158Z,6.10
2024-02-21T23:33:35.191Z,6.20
2024-02-21T23:36:06.428Z,6.10
2024-02-21T23:38:33.687Z,6.00
2024-02-21T23:41:00.742Z,6.10
2024-02-21T23:43:29.712Z,6.00
2024-02-21T23:45:57.331Z,6.00
2024-02-21T23:48:24.146Z,5.90
2024-02-21T23:50:51.341Z,5.90
2024-02-21T23:53:18.400Z,6.00
2024-02-21T23:55:45.305Z,5.90
2024-02-21T23:58:13.935Z,5.80
